createdAt,value
2022-08-10T00:00:31.913Z,18.49
2022-08-10T00:03:00.735Z,18.40
2022-08-10T00:05:28.913Z,18.35
2022-08-10T00:08:10.714Z,18.31
2022-08-10T00:10:37.591Z,18.26
2022-08-10T00:13:04.246Z,18.20
2022-08-10T00:15:51.947Z,18.27
2022-08-10T00:18:34.661Z,18.23
2022-08-10T00:21:08.087Z,18.18
2022-08-10T00:23:35.361Z,18.18
2022-08-10T00:26:02.346Z,17.98
2022-08-10T00:28:29.149Z,18.07
2022-08-10T00:30:56.121Z,18.00
2022-08-10T00:33:22.898Z,17.97
2022-08-10T00:35:49.766Z,17.94
2022-08-10T00:38:16.514Z,17.92
2022-08-10T00:40:43.327Z,17.90
2022-08-10T00:43:10.054Z,17.78
2022-08-10T00:45:36.890Z,17.72
2022-08-10T00:48:04.350Z,17.67
2022-08-10T00:50:31.245Z,17.69
2022-08-10T00:52:58.251Z,17.75
2022-08-10T00:55:25.148Z,17.72
2022-08-10T00:57:54.937Z,17.66
2022-08-10T01:00:24.028Z,17.58
2022-08-10T01:02:51.183Z,17.55
2022-08-10T01:05:20.453Z,17.55
2022-08-10T01:07:49.308Z,17.52
2022-08-10T01:10:49.989Z,17.43
2022-08-10T01:13:26.394Z,17.29
2022-08-10T01:16:15.132Z,17.24
2022-08-10T01:19:00.165Z,17.20
2022-08-10T01:21:36.657Z,17.21
2022-08-10T01:24:20.055Z,17.22
2022-08-10T01:27:27.019Z,17.26
2022-08-10T01:30:02.098Z,17.28
2022-08-10T01:32:47.610Z,17.32
2022-08-10T01:35:24.582Z,17.22
2022-08-10T01:38:03.640Z,17.13
2022-08-10T01:40:34.136Z,17.10
2022-08-10T01:43:08.009Z,17.20
2022-08-10T01:45:45.587Z,17.16
2022-08-10T01:48:33.669Z,17.20
2022-08-10T01:51:13.144Z,17.24
2022-08-10T01:53:54.458Z,17.24
2022-08-10T01:56:24.422Z,17.22
2022-08-10T01:58:59.086Z,17.18
2022-08-10T02:01:32.652Z,17.23
2022-08-10T02:04:06.329Z,17.25
2022-08-10T02:06:38.909Z,17.23
2022-08-10T02:09:08.034Z,17.27
2022-08-10T02:11:55.885Z,17.28
2022-08-10T02:14:33.104Z,17.27
2022-08-10T02:17:06.269Z,17.29
2022-08-10T02:19:35.433Z,17.28
2022-08-10T02:22:37.077Z,17.24
2022-08-10T02:24:51.956Z,17.22
2022-08-10T02:27:22.861Z,17.26
2022-08-10T02:29:52.792Z,17.17
2022-08-10T02:32:34.018Z,17.08
2022-08-10T02:35:13.265Z,17.06
2022-08-10T02:37:51.657Z,17.03
2022-08-10T02:45:00.748Z,17.04
2022-08-10T02:45:18.780Z,17.09
2022-08-10T02:46:08.415Z,17.08
2022-08-10T02:48:44.497Z,17.03
2022-08-10T02:51:20.044Z,17.00
2022-08-10T02:54:12.367Z,16.90
2022-08-10T02:56:41.299Z,16.92
2022-08-10T02:59:17.369Z,16.94
2022-08-10T03:01:47.860Z,16.94
2022-08-10T03:04:55.576Z,16.87
2022-08-10T03:07:42.840Z,16.89
2022-08-10T03:10:22.649Z,16.82
2022-08-10T03:12:52.459Z,16.82
2022-08-10T03:15:21.804Z,16.75
2022-08-10T03:17:58.249Z,16.72
2022-08-10T03:20:39.768Z,16.72
2022-08-10T03:23:13.454Z,16.71
2022-08-10T03:25:53.427Z,16.69
2022-08-10T03:28:25.018Z,16.70
2022-08-10T03:30:53.057Z,16.63
2022-08-10T03:33:22.273Z,16.65
2022-08-10T03:36:40.133Z,16.61
2022-08-10T03:38:36.954Z,16.62
2022-08-10T03:41:06.252Z,16.58
2022-08-10T03:43:34.323Z,16.45
2022-08-10T03:46:06.194Z,16.37
2022-08-10T03:48:49.395Z,16.36
2022-08-10T03:51:18.887Z,16.36
2022-08-10T03:54:04.440Z,16.20
2022-08-10T03:56:38.723Z,16.10
2022-08-10T03:59:07.570Z,16.05
2022-08-10T04:02:45.981Z,16.02
2022-08-10T04:04:24.632Z,15.96
2022-08-10T04:06:57.879Z,15.98
2022-08-10T04:09:43.017Z,16.00
2022-08-10T04:12:16.747Z,15.97
2022-08-10T04:14:49.965Z,16.00
2022-08-10T04:18:01.397Z,15.94
2022-08-10T04:20:34.201Z,15.93
2022-08-10T04:23:06.989Z,15.92
2022-08-10T04:25:34.448Z,15.91
2022-08-10T04:28:03.222Z,15.91
2022-08-10T04:30:32.012Z,15.91
2022-08-10T04:33:01.819Z,15.98
2022-08-10T04:35:29.972Z,16.08
2022-08-10T04:37:57.989Z,16.17
2022-08-10T04:40:30.354Z,16.22
2022-08-10T04:43:10.883Z,16.22
2022-08-10T04:45:50.567Z,16.33
2022-08-10T04:48:42.634Z,16.35
2022-08-10T04:51:15.983Z,16.39
2022-08-10T04:54:04.309Z,16.48
2022-08-10T04:56:38.038Z,16.55
2022-08-10T04:59:10.645Z,16.62
2022-08-10T05:02:22.610Z,16.63
2022-08-10T05:04:36.417Z,16.79
2022-08-10T05:07:16.878Z,16.83
2022-08-10T05:10:02.510Z,16.91
2022-08-10T05:12:35.678Z,17.08
2022-08-10T05:15:03.248Z,17.18
2022-08-10T05:17:29.928Z,17.23
2022-08-10T05:20:02.949Z,17.27
2022-08-10T05:22:39.361Z,17.37
2022-08-10T05:25:12.744Z,17.51
2022-08-10T05:27:40.342Z,17.61
2022-08-10T05:30:08.823Z,17.69
2022-08-10T05:32:57.755Z,17.88
2022-08-10T05:35:23.859Z,17.97
2022-08-10T05:38:09.061Z,18.01
2022-08-10T05:40:39.662Z,18.18
2022-08-10T05:43:06.954Z,18.31
2022-08-10T05:45:34.032Z,18.38
2022-08-10T05:48:56.558Z,18.45
2022-08-10T05:51:09.286Z,18.53
2022-08-10T05:54:02.200Z,18.62
2022-08-10T05:56:26.050Z,18.60
2022-08-10T05:58:53.425Z,18.76
2022-08-10T06:01:23.563Z,18.93
2022-08-10T06:03:59.691Z,19.15
2022-08-10T06:06:30.036Z,19.32
2022-08-10T06:08:57.551Z,19.27
2022-08-10T06:12:26.936Z,19.23
2022-08-10T06:14:36.714Z,19.30
2022-08-10T06:17:04.065Z,19.44
2022-08-10T06:19:31.592Z,19.59
2022-08-10T06:22:01.478Z,19.64
2022-08-10T06:24:50.398Z,19.76
2022-08-10T06:27:34.346Z,19.78
2022-08-10T06:30:02.538Z,19.80
2022-08-10T06:32:30.896Z,19.80
2022-08-10T06:34:59.878Z,19.70
2022-08-10T06:37:29.159Z,19.97
2022-08-10T06:39:56.186Z,20.21
2022-08-10T06:42:39.868Z,20.30
2022-08-10T06:45:12.295Z,20.46
2022-08-10T06:47:46.651Z,20.47
2022-08-10T06:50:44.703Z,20.34
2022-08-10T06:53:21.334Z,20.59
2022-08-10T06:56:06.711Z,20.97
2022-08-10T06:58:41.088Z,20.70
2022-08-10T07:01:14.572Z,20.68
2022-08-10T07:03:48.963Z,20.81
2022-08-10T07:06:19.889Z,21.04
2022-08-10T07:08:48.946Z,21.20
2022-08-10T07:11:18.612Z,21.05
2022-08-10T07:14:15.317Z,21.24
2022-08-10T07:16:35.223Z,21.42
2022-08-10T07:19:03.390Z,21.15
2022-08-10T07:21:31.284Z,21.30
2022-08-10T07:24:01.128Z,21.36
2022-08-10T07:26:30.502Z,21.34
2022-08-10T07:28:59.129Z,21.34
2022-08-10T07:31:54.986Z,21.61
2022-08-10T07:34:29.576Z,21.68
2022-08-10T07:37:02.408Z,21.88
2022-08-10T07:39:58.224Z,22.05
2022-08-10T07:42:24.559Z,21.99
2022-08-10T07:44:51.896Z,22.29
2022-08-10T07:47:52.795Z,22.62
2022-08-10T07:50:15.091Z,22.88
2022-08-10T07:52:43.785Z,22.85
2022-08-10T07:55:15.095Z,22.89
2022-08-10T07:57:44.479Z,23.24
2022-08-10T08:00:12.795Z,23.69
2022-08-10T08:02:46.162Z,23.77
2022-08-10T08:05:59.116Z,23.75
2022-08-10T08:08:03.838Z,23.18
2022-08-10T08:10:31.322Z,23.10
2022-08-10T08:12:59.003Z,23.04
2022-08-10T08:16:19.903Z,22.72
2022-08-10T08:18:20.509Z,23.21
2022-08-10T08:20:52.949Z,24.01
2022-08-10T08:24:14.655Z,24.57
2022-08-10T08:26:11.550Z,25.07
2022-08-10T08:28:45.657Z,24.67
2022-08-10T08:31:18.026Z,24.52
2022-08-10T08:33:47.014Z,24.76
2022-08-10T08:36:17.188Z,24.52
2022-08-10T08:38:46.063Z,24.55
2022-08-10T08:41:22.220Z,24.63
2022-08-10T08:44:16.978Z,24.41
2022-08-10T08:47:04.914Z,24.71
2022-08-10T08:50:16.079Z,25.00
2022-08-10T08:52:59.902Z,25.25
2022-08-10T08:56:05.452Z,24.96
2022-08-10T08:58:52.300Z,24.97
2022-08-10T09:01:40.380Z,25.07
2022-08-10T09:04:20.094Z,24.88
2022-08-10T09:07:39.461Z,24.87
2022-08-10T09:10:36.763Z,25.05
2022-08-10T09:13:29.490Z,25.21
2022-08-10T09:16:20.845Z,25.61
2022-08-10T09:19:36.247Z,26.06
2022-08-10T09:22:30.742Z,25.82
2022-08-10T09:25:21.651Z,25.59
2022-08-10T09:27:56.708Z,25.86
2022-08-10T09:30:32.235Z,26.28
2022-08-10T09:36:25.556Z,26.53
2022-08-10T09:36:33.010Z,26.67
2022-08-10T09:39:03.402Z,26.46
2022-08-10T09:41:47.100Z,26.08
2022-08-10T09:44:58.385Z,26.21
2022-08-10T09:48:02.512Z,25.68
2022-08-10T09:51:34.442Z,26.20
2022-08-10T09:53:57.611Z,26.23
2022-08-10T09:56:45.666Z,26.58
2022-08-10T09:59:59.954Z,26.67
2022-08-10T10:02:44.740Z,26.22
2022-08-10T10:05:24.846Z,26.13
2022-08-10T10:08:22.619Z,26.46
2022-08-10T10:11:09.767Z,26.92
2022-08-10T10:14:12.595Z,26.15
2022-08-10T10:17:17.345Z,25.86
2022-08-10T10:19:59.338Z,26.12
2022-08-10T10:23:07.461Z,26.27
2022-08-10T10:26:01.690Z,26.09
2022-08-10T10:29:19.625Z,26.17
2022-08-10T10:31:37.157Z,26.09
2022-08-10T10:34:15.662Z,26.62
2022-08-10T10:36:44.923Z,26.98
2022-08-10T10:39:19.443Z,27.30
2022-08-10T10:42:23.343Z,27.25
2022-08-10T10:45:20.113Z,27.25
2022-08-10T10:48:08.533Z,26.38
2022-08-10T10:50:49.558Z,26.02
2022-08-10T10:53:28.102Z,26.00
2022-08-10T10:56:15.371Z,26.49
2022-08-10T10:58:45.864Z,26.64
2022-08-10T11:01:38.502Z,26.62
2022-08-10T11:04:30.451Z,26.22
2022-08-10T11:07:17.014Z,27.15
2022-08-10T11:10:03.857Z,27.17
2022-08-10T11:14:24.896Z,27.13
2022-08-10T11:16:05.742Z,27.36
2022-08-10T11:18:33.871Z,27.18
2022-08-10T11:21:23.928Z,27.44
2022-08-10T11:24:48.879Z,27.17
2022-08-10T11:26:58.804Z,27.17
2022-08-10T11:29:30.318Z,27.30
2022-08-10T11:32:21.450Z,27.93
2022-08-10T11:35:34.645Z,28.29
2022-08-10T11:38:30.351Z,28.59
2022-08-10T11:42:07.118Z,28.36
2022-08-10T11:44:31.134Z,28.06
2022-08-10T11:47:11.782Z,27.69
2022-08-10T11:50:00.653Z,28.11
2022-08-10T11:52:52.140Z,28.58
2022-08-10T11:55:22.166Z,27.49
2022-08-10T11:57:53.384Z,27.98
2022-08-10T12:00:24.094Z,28.49
2022-08-10T12:02:55.648Z,28.06
2022-08-10T12:05:53.876Z,28.08
2022-08-10T12:10:04.848Z,28.06
2022-08-10T12:11:23.963Z,27.84
2022-08-10T12:14:19.667Z,27.34
2022-08-10T12:16:48.987Z,27.82
2022-08-10T12:19:15.578Z,28.08
2022-08-10T12:21:50.611Z,27.86
2022-08-10T12:24:33.588Z,28.45
2022-08-10T12:27:13.113Z,29.01
2022-08-10T12:29:55.739Z,29.20
2022-08-10T12:32:54.244Z,29.21
2022-08-10T12:36:17.843Z,28.52
2022-08-10T12:39:16.962Z,28.23
2022-08-10T12:41:56.832Z,28.65
2022-08-10T12:44:41.556Z,28.97
2022-08-10T12:47:15.253Z,28.10
2022-08-10T12:50:29.322Z,27.93
2022-08-10T12:53:27.423Z,28.66
2022-08-10T12:55:56.341Z,27.77
2022-08-10T12:58:58.310Z,27.87
2022-08-10T13:01:16.724Z,27.60
2022-08-10T13:04:23.181Z,28.14
2022-08-10T13:06:49.948Z,28.04
2022-08-10T13:09:25.142Z,27.51
2022-08-10T13:12:38.881Z,27.75
2022-08-10T13:15:43.133Z,27.53
2022-08-10T13:17:55.861Z,27.36
2022-08-10T13:20:45.145Z,27.61
2022-08-10T13:23:16.029Z,28.29
2022-08-10T13:25:45.964Z,28.08
2022-08-10T13:28:35.425Z,28.34
2022-08-10T13:31:07.436Z,27.51
2022-08-10T13:34:39.246Z,27.78
2022-08-10T13:36:40.297Z,28.04
2022-08-10T13:39:08.347Z,27.59
2022-08-10T13:41:41.057Z,27.43
2022-08-10T13:44:11.439Z,28.06
2022-08-10T13:46:42.246Z,28.79
2022-08-10T13:49:11.274Z,29.15
2022-08-10T13:51:56.421Z,28.97
2022-08-10T13:54:41.790Z,28.00
2022-08-10T13:57:10.742Z,27.39
2022-08-10T14:00:35.506Z,27.66
2022-08-10T14:02:34.557Z,27.80
2022-08-10T14:05:03.165Z,28.11
2022-08-10T14:07:32.308Z,28.29
2022-08-10T14:10:07.192Z,28.25
2022-08-10T14:12:40.720Z,28.19
2022-08-10T14:15:13.341Z,28.43
2022-08-10T14:17:44.935Z,28.05
2022-08-10T14:20:17.967Z,27.42
2022-08-10T14:22:47.927Z,27.52
2022-08-10T14:25:15.814Z,27.29
2022-08-10T14:28:02.448Z,27.19
2022-08-10T14:30:31.875Z,27.53
2022-08-10T14:33:04.196Z,27.53
2022-08-10T14:36:21.466Z,27.69
2022-08-10T14:38:26.776Z,27.78
2022-08-10T14:40:56.812Z,27.90
2022-08-10T14:43:32.892Z,27.45
2022-08-10T14:46:11.102Z,27.09
2022-08-10T14:48:43.655Z,27.04
2022-08-10T14:51:15.762Z,27.38
2022-08-10T14:53:44.286Z,27.65
2022-08-10T14:56:14.647Z,27.61
2022-08-10T14:59:06.202Z,27.16
2022-08-10T15:02:00.563Z,27.04
2022-08-10T15:04:26.870Z,26.81
2022-08-10T15:07:11.489Z,26.85
2022-08-10T15:10:01.135Z,26.85
2022-08-10T15:12:34.429Z,26.85
2022-08-10T15:15:02.536Z,27.09
2022-08-10T15:17:37.257Z,27.24
2022-08-10T15:20:14.911Z,27.19
2022-08-10T15:22:49.887Z,27.07
2022-08-10T15:25:25.261Z,26.89
2022-08-10T15:28:06.355Z,26.74
2022-08-10T15:30:57.874Z,26.53
2022-08-10T15:34:04.287Z,26.59
2022-08-10T15:37:01.892Z,26.44
2022-08-10T15:40:21.529Z,26.60
2022-08-10T15:42:52.317Z,26.33
2022-08-10T15:45:19.337Z,26.34
2022-08-10T15:47:52.849Z,26.18
2022-08-10T15:50:40.326Z,26.26
2022-08-10T15:53:16.049Z,26.55
2022-08-10T15:55:51.686Z,26.37
2022-08-10T15:58:39.262Z,26.04
2022-08-10T16:02:04.202Z,25.78
2022-08-10T16:04:19.092Z,25.86
2022-08-10T16:06:57.413Z,25.78
2022-08-10T16:10:24.138Z,25.73
2022-08-10T16:12:29.351Z,25.75
2022-08-10T16:15:00.146Z,25.74
2022-08-10T16:17:28.315Z,25.57
2022-08-10T16:19:57.740Z,25.43
2022-08-10T16:22:34.269Z,25.37
2022-08-10T16:25:12.331Z,25.41
2022-08-10T16:27:41.106Z,25.62
2022-08-10T16:30:08.103Z,25.72
2022-08-10T16:32:35.938Z,25.73
2022-08-10T16:35:09.316Z,25.74
2022-08-10T16:37:57.426Z,25.50
2022-08-10T16:40:28.332Z,25.32
2022-08-10T16:42:57.493Z,25.37
2022-08-10T16:45:31.434Z,25.43
2022-08-10T16:47:59.425Z,25.22
2022-08-10T16:50:29.839Z,25.20
2022-08-10T16:53:01.948Z,25.24
2022-08-10T16:55:48.566Z,25.29
2022-08-10T16:58:39.759Z,25.25
2022-08-10T17:01:20.510Z,25.20
2022-08-10T17:04:07.228Z,25.12
2022-08-10T17:06:44.151Z,25.00
2022-08-10T17:09:18.320Z,25.02
2022-08-10T17:11:52.001Z,24.94
2022-08-10T17:14:23.857Z,24.81
2022-08-10T17:16:56.951Z,24.74
2022-08-10T17:19:25.639Z,24.77
2022-08-10T17:21:58.373Z,24.76
2022-08-10T17:24:37.897Z,24.71
2022-08-10T17:28:21.160Z,24.68
2022-08-10T17:30:04.851Z,24.57
2022-08-10T17:32:49.729Z,24.48
2022-08-10T17:35:23.470Z,24.38
2022-08-10T17:38:03.077Z,24.36
2022-08-10T17:40:32.948Z,24.35
2022-08-10T17:43:01.988Z,24.30
2022-08-10T17:45:47.982Z,24.31
2022-08-10T17:48:18.148Z,24.22
2022-08-10T17:50:50.306Z,24.18
2022-08-10T17:53:29.654Z,24.07
2022-08-10T17:55:59.007Z,24.03
2022-08-10T17:58:28.494Z,23.97
2022-08-10T18:01:38.156Z,23.87
2022-08-10T18:03:51.374Z,23.79
2022-08-10T18:06:19.293Z,23.74
2022-08-10T18:08:59.258Z,23.67
2022-08-10T18:11:29.118Z,23.62
2022-08-10T18:14:00.924Z,23.51
2022-08-10T18:16:33.919Z,23.44
2022-08-10T18:19:09.598Z,23.38
2022-08-10T18:21:42.646Z,23.30
2022-08-10T18:24:17.794Z,23.23
2022-08-10T18:26:50.934Z,23.17
2022-08-10T18:29:30.024Z,23.11
2022-08-10T18:31:59.938Z,23.06
2022-08-10T18:34:29.803Z,23.01
2022-08-10T18:36:57.338Z,22.94
2022-08-10T18:39:35.206Z,22.88
2022-08-10T18:42:21.509Z,22.78
2022-08-10T18:45:01.347Z,22.69
2022-08-10T18:47:39.138Z,22.68
2022-08-10T18:50:10.313Z,22.54
2022-08-10T18:52:41.004Z,22.45
2022-08-10T18:55:27.090Z,22.37
2022-08-10T18:58:23.323Z,22.22
2022-08-10T19:01:03.444Z,22.15
2022-08-10T19:03:47.308Z,22.09
2022-08-10T19:06:39.343Z,22.01
2022-08-10T19:09:45.995Z,21.90
2022-08-10T19:12:30.014Z,21.83
2022-08-10T19:15:07.020Z,21.74
2022-08-10T19:18:04.598Z,21.66
2022-08-10T19:20:35.516Z,21.65
2022-08-10T19:23:47.537Z,21.58
2022-08-10T19:26:44.839Z,21.54
2022-08-10T19:30:07.985Z,21.55
2022-08-10T19:32:27.698Z,21.53
2022-08-10T19:35:17.085Z,21.52
2022-08-10T19:38:17.067Z,21.54
2022-08-10T19:41:10.010Z,21.49
2022-08-10T19:44:00.285Z,21.43
2022-08-10T19:46:39.126Z,21.34
2022-08-10T19:49:27.938Z,21.30
2022-08-10T19:52:05.068Z,21.28
2022-08-10T19:54:53.459Z,21.19
2022-08-10T19:57:40.343Z,21.15
2022-08-10T20:00:19.390Z,21.15
2022-08-10T20:02:56.999Z,21.15
2022-08-10T20:05:33.956Z,21.11
2022-08-10T20:08:14.445Z,21.08
2022-08-10T20:11:04.300Z,21.05
2022-08-10T20:14:00.344Z,21.04
2022-08-10T20:16:30.466Z,21.02
2022-08-10T20:19:52.403Z,21.01
2022-08-10T20:22:29.218Z,20.99
2022-08-10T20:25:06.157Z,20.97
2022-08-10T20:27:59.556Z,20.92
2022-08-10T20:30:31.960Z,20.81
2022-08-10T20:33:13.913Z,20.80
2022-08-10T20:35:43.541Z,20.75
2022-08-10T20:38:38.672Z,20.73
2022-08-10T20:41:12.858Z,20.70
2022-08-10T20:43:57.686Z,20.63
2022-08-10T20:46:42.946Z,20.53
2022-08-10T20:49:31.464Z,20.45
2022-08-10T20:52:02.902Z,20.41
2022-08-10T20:54:36.763Z,20.38
2022-08-10T20:57:54.210Z,20.33
2022-08-10T21:00:10.833Z,20.28
2022-08-10T21:03:31.836Z,20.22
2022-08-10T21:06:41.620Z,20.16
2022-08-10T21:09:18.230Z,20.04
2022-08-10T21:12:16.196Z,20.01
2022-08-10T21:15:07.915Z,19.97
2022-08-10T21:17:53.667Z,19.95
2022-08-10T21:20:54.595Z,19.87
2022-08-10T21:23:30.636Z,19.83
2022-08-10T21:26:09.848Z,19.79
2022-08-10T21:28:51.720Z,19.75
2022-08-10T21:31:52.156Z,19.61
2022-08-10T21:34:37.115Z,19.59
2022-08-10T21:37:13.642Z,19.61
2022-08-10T21:39:46.953Z,19.55
2022-08-10T21:42:47.570Z,19.50
2022-08-10T21:45:59.587Z,19.54
2022-08-10T21:48:59.006Z,19.52
2022-08-10T21:52:16.242Z,19.48
2022-08-10T21:55:21.405Z,19.46
2022-08-10T21:58:12.650Z,19.39
2022-08-10T22:01:17.640Z,19.26
2022-08-10T22:04:04.049Z,19.06
2022-08-10T22:06:54.650Z,18.78
2022-08-10T22:09:46.982Z,18.48
2022-08-10T22:12:35.977Z,18.35
2022-08-10T22:16:03.733Z,18.47
2022-08-10T22:18:40.053Z,18.48
2022-08-10T22:21:57.248Z,18.33
2022-08-10T22:24:57.733Z,18.32
2022-08-10T22:27:53.766Z,18.22
2022-08-10T22:30:57.862Z,17.94
2022-08-10T22:33:56.516Z,17.83
2022-08-10T22:37:04.827Z,17.90
2022-08-10T22:40:19.278Z,17.94
2022-08-10T22:43:10.286Z,17.95
2022-08-10T22:46:03.432Z,17.99
2022-08-10T22:48:51.057Z,18.03
2022-08-10T22:51:22.366Z,18.05
2022-08-10T22:54:11.572Z,17.94
2022-08-10T22:57:16.754Z,17.69
2022-08-10T22:59:43.454Z,17.64
2022-08-10T23:02:12.478Z,17.66
2022-08-10T23:04:50.718Z,17.65
2022-08-10T23:07:17.324Z,17.56
2022-08-10T23:09:47.606Z,17.56
2022-08-10T23:12:18.235Z,17.61
2022-08-10T23:15:00.566Z,17.63
2022-08-10T23:18:02.158Z,17.54
2022-08-10T23:20:31.694Z,17.53
2022-08-10T23:23:08.884Z,17.59
2022-08-10T23:25:57.372Z,17.60
2022-08-10T23:28:39.169Z,17.60
2022-08-10T23:31:14.789Z,17.56
2022-08-10T23:33:42.907Z,17.51
2022-08-10T23:36:33.764Z,17.50
2022-08-10T23:39:25.630Z,17.46
2022-08-10T23:41:58.299Z,17.45
2022-08-10T23:44:33.999Z,17.35
2022-08-10T23:47:03.877Z,17.29
2022-08-10T23:49:35.282Z,17.37
2022-08-10T23:52:16.979Z,17.38
2022-08-10T23:54:47.767Z,17.34
2022-08-10T23:57:17.943Z,17.35
2022-08-10T23:59:51.207Z,17.38
